Terminal Aerodrome Forecast
Issued by NWS

Home | Current Version | Previous Version | Text Only | Print | Product List | Glossary On
Versions: 1 2 3 4 5 6 7 8 9 10 11 12 13 14 15 16 17
000
FTUS43 KEAX 271723
TAFSTJ
TAF
KSTJ 271723Z 2718/2818 24010KT P6SM SCT200
     FM272300 17005KT 6SM BR VCSH BKN035 OVC050
     FM280400 09007KT P6SM OVC050
     FM280800 09010KT 5SM -RA SCT006 BKN011 OVC035
     FM281700 12010KT P6SM BKN017=

USA.gov is the U.S. government's official web portal to all federal, state and local government web resources and services.